Time;durP1;ratioP1;P1;durP2;ratioP2;P2;SDS_P1;SDS_P2;PMS_P1;PMS_P2;Temp;Humidity;BMP_temperature;BMP_pressure;BME280_temperature;BME280_humidity;BME280_pressure;Samples;Min_cycle;Max_cycle;Signal;HPM_P1;HPM_P2
2023/10/14 00:00:26;;;;;;;2.03;1.33;;;;;;;23.70;43.75;98623.97;337417;28;15931;-73
2023/10/14 00:00:38;;;;;;;2.97;1.33;;;;;;;23.67;43.52;98613.69;333991;28;16616;-73
2023/10/14 00:00:50;;;;;;;3.05;1.40;;;;;;;23.66;43.63;98618.19;341861;28;4541;-72
2023/10/14 00:01:11;;;;;;;2.70;1.40;;;;;;;23.66;43.46;98617.31;338774;28;5764;-72
2023/10/14 00:01:27;;;;;;;3.10;1.30;;;;;;;23.77;43.50;98619.75;340186;28;16440;-73
2023/10/14 00:01:39;;;;;;;2.22;1.30;;;;;;;23.77;43.24;98619.75;338741;28;11666;-72
2023/10/14 00:01:55;;;;;;;1.52;1.23;;;;;;;23.74;43.41;98625.31;341768;28;5372;-72
2023/10/14 00:02:21;;;;;;;1.75;1.17;;;;;;;23.67;43.68;98619.81;337273;28;16621;-72
2023/10/14 00:02:34;;;;;;;3.10;1.13;;;;;;;23.68;43.49;98620.66;338501;28;17455;-72
2023/10/14 00:02:46;;;;;;;1.83;1.15;;;;;;;23.71;43.41;98620.34;341347;28;5122;-72
2023/10/14 00:03:06;;;;;;;3.00;1.30;;;;;;;23.72;43.48;98619.34;339008;28;6548;-72
2023/10/14 00:03:27;;;;;;;4.25;1.42;;;;;;;23.74;43.28;98625.31;340205;28;14270;-72
2023/10/14 00:03:43;;;;;;;3.55;1.60;;;;;;;23.76;43.31;98623.34;336698;28;17107;-72
2023/10/14 00:03:56;;;;;;;2.90;1.30;;;;;;;23.70;43.86;98621.31;338889;28;17858;-72
2023/10/14 00:04:09;;;;;;;1.38;1.13;;;;;;;23.69;43.71;98627.63;338530;28;9413;-72
2023/10/14 00:04:26;;;;;;;1.40;1.20;;;;;;;23.67;43.70;98625.13;341662;28;5370;-71
2023/10/14 00:04:38;;;;;;;1.50;1.10;;;;;;;23.70;43.58;98624.81;339864;28;17589;-71
2023/10/14 00:04:54;;;;;;;2.00;1.23;;;;;;;23.70;43.39;98623.97;332674;28;17900;-72
2023/10/14 00:05:07;;;;;;;2.00;1.20;;;;;;;23.71;43.54;98625.66;337120;28;17407;-71
2023/10/14 00:05:22;;;;;;;1.92;1.40;;;;;;;23.71;43.63;98628.31;339010;28;16295;-72
2023/10/14 00:05:35;;;;;;;1.85;1.50;;;;;;;23.65;43.63;98639.56;338916;28;5238;-72
2023/10/14 00:05:48;;;;;;;2.40;1.48;;;;;;;23.66;43.63;98634.09;341579;28;5915;-71
2023/10/14 00:06:06;;;;;;;2.63;1.50;;;;;;;23.65;43.64;98634.25;338065;28;18120;-72
2023/10/14 00:06:18;;;;;;;2.28;1.50;;;;;;;23.67;43.48;98629.63;338595;28;17736;-72
2023/10/14 00:06:34;;;;;;;3.55;1.42;;;;;;;23.67;43.63;98634.91;334506;28;20022;-72
2023/10/14 00:06:47;;;;;;;3.65;1.23;;;;;;;23.63;43.73;98636.22;338311;28;17644;-72
2023/10/14 00:07:06;;;;;;;2.20;1.30;;;;;;;23.60;43.67;98640.00;340345;28;5461;-72
2023/10/14 00:07:20;;;;;;;1.98;1.30;;;;;;;23.65;43.55;98631.59;339675;28;16412;-72
2023/10/14 00:07:32;;;;;;;4.32;1.23;;;;;;;23.71;43.48;98630.97;338562;28;17850;-71
2023/10/14 00:07:44;;;;;;;4.45;1.38;;;;;;;23.76;43.36;98633.13;338964;28;5452;-72
2023/10/14 00:07:56;;;;;;;4.53;1.40;;;;;;;23.76;43.35;98633.94;335397;28;17340;-72
2023/10/14 00:08:12;;;;;;;2.40;1.58;;;;;;;23.78;43.38;98637.31;343219;28;5404;-72
2023/10/14 00:08:27;;;;;;;2.60;1.60;;;;;;;23.77;43.25;98635.66;338571;28;18016;-72
2023/10/14 00:08:48;;;;;;;3.35;1.50;;;;;;;23.73;43.59;98628.97;340993;28;17188;-73
2023/10/14 00:09:11;;;;;;;2.33;1.10;;;;;;;23.72;43.59;98632.59;338812;28;17516;-72
2023/10/14 00:09:25;;;;;;;1.50;1.10;;;;;;;23.75;43.42;98627.00;337427;28;16772;-71
2023/10/14 00:09:43;;;;;;;1.90;1.20;;;;;;;23.72;43.39;98635.25;338657;28;17692;-70
2023/10/14 00:09:59;;;;;;;2.25;1.20;;;;;;;23.78;43.31;98639.97;338620;28;14450;-71
2023/10/14 00:10:12;;;;;;;2.08;1.10;;;;;;;23.68;43.83;98636.56;337995;28;17621;-72
2023/10/14 00:10:24;;;;;;;2.33;1.17;;;;;;;23.68;43.76;98633.91;339894;28;5619;-71
2023/10/14 00:10:36;;;;;;;2.55;1.30;;;;;;;23.72;43.54;98635.25;337188;28;17875;-72
2023/10/14 00:10:48;;;;;;;3.45;1.20;;;;;;;23.72;43.59;98637.91;334236;28;5101;-72
2023/10/14 00:11:06;;;;;;;2.85;1.20;;;;;;;23.74;43.45;98635.94;339825;28;4697;-71
2023/10/14 00:11:18;;;;;;;2.35;1.23;;;;;;;23.77;43.63;98640.09;335557;28;17279;-72
2023/10/14 00:11:35;;;;;;;3.95;1.20;;;;;;;23.79;43.54;98633.69;336601;28;6108;-72
2023/10/14 00:11:51;;;;;;;3.60;1.23;;;;;;;23.75;43.70;98632.31;337876;28;17748;-72
2023/10/14 00:12:12;;;;;;;2.17;1.30;;;;;;;23.73;43.68;98627.16;329755;28;18591;-72
2023/10/14 00:12:28;;;;;;;2.17;1.30;;;;;;;23.71;43.48;98633.59;337654;28;17724;-72
2023/10/14 00:12:41;;;;;;;1.92;1.30;;;;;;;23.71;43.73;98633.59;340714;28;19056;-73
2023/10/14 00:12:55;;;;;;;2.22;1.30;;;;;;;23.69;43.64;98632.94;337602;28;17946;-72
2023/10/14 00:13:16;;;;;;;3.65;1.40;;;;;;;23.69;43.67;98632.94;338314;28;19004;-72
2023/10/14 00:13:30;;;;;;;3.13;1.35;;;;;;;23.66;43.89;98633.25;336956;28;17554;-71
2023/10/14 00:13:52;;;;;;;2.22;1.27;;;;;;;23.67;43.84;98629.63;338667;28;18198;-72
2023/10/14 00:14:14;;;;;;;1.70;1.30;;;;;;;23.67;43.46;98629.63;338741;28;17692;-73
2023/10/14 00:14:26;;;;;;;2.67;1.15;;;;;;;23.71;43.63;98633.59;338434;28;17936;-73
2023/10/14 00:14:42;;;;;;;3.58;1.40;;;;;;;23.71;43.56;98630.97;341047;28;5330;-72
2023/10/14 00:14:54;;;;;;;3.85;1.33;;;;;;;23.69;43.68;98627.63;339255;28;18472;-72
2023/10/14 00:15:07;;;;;;;5.32;1.20;;;;;;;23.67;43.76;98629.63;336497;28;4647;-72
2023/10/14 00:15:19;;;;;;;5.10;1.48;;;;;;;23.66;43.87;98630.59;337832;28;18982;-72
2023/10/14 00:15:34;;;;;;;3.13;1.70;;;;;;;23.68;43.89;98625.94;338735;28;5126;-73
2023/10/14 00:15:46;;;;;;;2.78;1.58;;;;;;;23.70;43.71;98623.97;341218;28;5088;-73
2023/10/14 00:16:01;;;;;;;2.88;1.30;;;;;;;23.72;43.63;98624.66;339084;28;13739;-72
2023/10/14 00:16:24;;;;;;;3.28;1.30;;;;;;;23.68;43.51;98628.59;337632;28;18245;-72
2023/10/14 00:16:36;;;;;;;4.57;1.33;;;;;;;23.68;43.77;98632.13;336974;28;17891;-72
2023/10/14 00:16:49;;;;;;;3.03;1.38;;;;;;;23.70;43.92;98631.94;340032;28;18136;-72
2023/10/14 00:17:05;;;;;;;2.25;1.40;;;;;;;23.69;43.77;98633.75;339416;28;4653;-71
2023/10/14 00:17:18;;;;;;;1.73;1.23;;;;;;;23.68;44.04;98625.94;338902;28;5168;-72
2023/10/14 00:17:35;;;;;;;1.67;1.20;;;;;;;23.69;43.99;98628.47;341409;28;4546;-71
2023/10/14 00:17:49;;;;;;;1.83;1.20;;;;;;;23.72;43.69;98633.47;338195;28;17699;-71
2023/10/14 00:18:02;;;;;;;1.48;1.00;;;;;;;23.72;43.68;98627.28;333032;28;16495;-71
2023/10/14 00:18:14;;;;;;;1.20;1.10;;;;;;;23.74;43.82;98630.63;338442;28;17549;-72
2023/10/14 00:18:26;;;;;;;1.67;1.30;;;;;;;23.75;43.58;98632.31;340790;28;5402;-72
2023/10/14 00:18:42;;;;;;;2.42;1.40;;;;;;;23.71;43.68;98623.00;340086;28;12956;-72
2023/10/14 00:18:59;;;;;;;4.75;1.40;;;;;;;23.69;43.79;98632.94;336951;28;17360;-72
2023/10/14 00:19:11;;;;;;;3.90;1.25;;;;;;;23.69;43.70;98619.66;337652;28;18096;-72
2023/10/14 00:19:24;;;;;;;3.63;1.50;;;;;;;23.66;43.81;98625.28;335086;28;16534;-72
2023/10/14 00:19:37;;;;;;;3.30;1.50;;;;;;;23.64;43.88;98630.78;340292;28;4497;-72
2023/10/14 00:19:50;;;;;;;2.08;1.20;;;;;;;23.66;43.78;98617.31;335535;28;17899;-73
2023/10/14 00:20:03;;;;;;;1.85;1.30;;;;;;;23.69;43.92;98624.97;340642;28;4976;-72
2023/10/14 00:20:15;;;;;;;2.03;1.40;;;;;;;23.75;43.61;98616.38;335769;28;18208;-70
2023/10/14 00:20:34;;;;;;;2.15;1.45;;;;;;;23.75;43.71;98612.91;338782;28;5504;-72
2023/10/14 00:20:46;;;;;;;1.67;1.45;;;;;;;23.75;43.76;98619.03;336357;28;17348;-72
2023/10/14 00:20:58;;;;;;;1.55;1.40;;;;;;;23.75;43.78;98616.38;335494;28;4748;-72
2023/10/14 00:21:11;;;;;;;1.85;1.50;;;;;;;23.73;43.81;98618.38;337855;28;17768;-72
2023/10/14 00:21:24;;;;;;;1.90;1.40;;;;;;;23.72;43.58;98617.53;339852;28;4569;-71
2023/10/14 00:21:36;;;;;;;1.85;1.30;;;;;;;23.76;43.60;98622.50;337976;28;18824;-72
2023/10/14 00:21:50;;;;;;;2.30;1.30;;;;;;;23.75;43.59;98621.69;338841;28;5268;-73
2023/10/14 00:22:05;;;;;;;2.28;1.30;;;;;;;23.79;43.69;98623.06;342097;28;4603;-73
2023/10/14 00:22:20;;;;;;;1.70;1.20;;;;;;;23.80;43.68;98622.06;334480;28;18210;-73
2023/10/14 00:22:32;;;;;;;1.92;1.30;;;;;;;23.85;43.59;98633.03;339041;28;17479;-73
2023/10/14 00:22:44;;;;;;;3.30;1.20;;;;;;;23.82;43.45;98622.72;337214;28;12006;-73
2023/10/14 00:22:56;;;;;;;3.42;1.17;;;;;;;23.78;43.71;98626.69;339943;28;5800;-73
2023/10/14 00:23:08;;;;;;;2.13;1.15;;;;;;;23.76;43.92;98628.66;340723;28;4513;-72
2023/10/14 00:23:26;;;;;;;2.55;1.50;;;;;;;23.76;43.83;98626.00;337697;28;17782;-73
2023/10/14 00:23:39;;;;;;;2.50;1.50;;;;;;;23.80;43.56;98630.00;336111;28;15961;-72
2023/10/14 00:23:57;;;;;;;2.17;1.30;;;;;;;23.86;43.46;98624.06;332701;28;19103;-72
2023/10/14 00:24:10;;;;;;;3.42;1.35;;;;;;;23.87;43.31;98620.44;339544;28;16192;-73
2023/10/14 00:24:28;;;;;;;4.40;1.30;;;;;;;23.88;43.35;98632.69;336187;28;19105;-73
2023/10/14 00:24:40;;;;;;;4.47;1.30;;;;;;;23.87;43.72;98625.75;336011;28;18557;-73
2023/10/14 00:24:52;;;;;;;3.25;1.35;;;;;;;23.85;43.55;98625.06;339791;28;4496;-73
2023/10/14 00:25:19;;;;;;;2.10;1.38;;;;;;;23.84;43.51;98626.06;337613;28;11780;-73
2023/10/14 00:25:35;;;;;;;1.90;1.33;;;;;;;23.83;43.53;98632.38;336120;28;16291;-73
2023/10/14 00:25:47;;;;;;;1.93;1.20;;;;;;;23.80;43.62;98630.00;338404;28;18961;-72
2023/10/14 00:25:59;;;;;;;1.75;1.13;;;;;;;23.80;43.76;98623.88;340239;28;4503;-73
2023/10/14 00:26:15;;;;;;;2.90;1.20;;;;;;;23.82;43.57;98624.56;336478;28;18165;-73
2023/10/14 00:26:28;;;;;;;3.03;1.30;;;;;;;23.72;44.34;98629.94;337391;28;17489;-72
2023/10/14 00:26:40;;;;;;;1.80;1.10;;;;;;;23.73;43.93;98624.50;341094;28;6121;-73
2023/10/14 00:26:57;;;;;;;2.63;1.23;;;;;;;23.66;43.87;98623.47;338465;28;17503;-72
2023/10/14 00:27:09;;;;;;;3.10;1.53;;;;;;;23.70;44.10;98626.63;335643;28;17571;-72
2023/10/14 00:27:23;;;;;;;2.60;1.63;;;;;;;23.70;43.89;98619.53;335890;28;16863;-72
2023/10/14 00:27:35;;;;;;;2.50;1.55;;;;;;;23.66;44.02;98622.63;339739;28;4676;-72
2023/10/14 00:27:50;;;;;;;2.78;1.48;;;;;;;23.66;44.03;98627.94;337075;28;18938;-71
2023/10/14 00:28:12;;;;;;;3.28;1.27;;;;;;;23.60;44.38;98628.56;336436;28;18014;-71
2023/10/14 00:28:24;;;;;;;2.40;1.20;;;;;;;23.66;44.16;98630.59;336184;28;17511;-72
2023/10/14 00:28:36;;;;;;;2.20;1.17;;;;;;;23.63;44.10;98628.28;337097;28;18131;-72
2023/10/14 00:28:54;;;;;;;2.42;1.30;;;;;;;23.67;43.97;98621.66;339869;28;4542;-72
2023/10/14 00:29:29;;;;;;;2.25;1.58;;;;;;;23.65;44.14;98620.97;337186;28;17540;-72
2023/10/14 00:29:41;;;;;;;1.60;1.30;;;;;;;23.67;44.28;98629.63;336885;28;17850;-72
2023/10/14 00:30:09;;;;;;;1.85;1.38;;;;;;;23.65;44.29;98626.28;339566;28;4612;-72
2023/10/14 00:30:26;;;;;;;3.35;1.40;;;;;;;23.65;44.20;98626.28;336121;28;17420;-72
2023/10/14 00:30:38;;;;;;;4.53;1.40;;;;;;;23.59;44.71;98630.41;336031;28;18849;-73
2023/10/14 00:30:55;;;;;;;4.05;1.42;;;;;;;23.61;44.27;98630.25;339989;28;4584;-73
2023/10/14 00:31:10;;;;;;;2.60;1.40;;;;;;;23.64;44.01;98622.81;336841;28;16128;-73
2023/10/14 00:31:23;;;;;;;1.50;1.20;;;;;;;23.67;44.15;98624.31;334235;28;17305;-73
2023/10/14 00:31:35;;;;;;;1.73;1.30;;;;;;;23.69;44.11;98624.97;339819;28;6186;-73
2023/10/14 00:31:49;;;;;;;2.63;1.40;;;;;;;23.70;44.07;98624.81;337448;28;18418;-73
2023/10/14 00:32:04;;;;;;;3.90;1.38;;;;;;;23.71;44.17;98623.00;336909;28;12824;-73
2023/10/14 00:32:17;;;;;;;3.53;1.27;;;;;;;23.74;44.02;98622.66;337131;28;10465;-72
2023/10/14 00:32:30;;;;;;;3.00;1.38;;;;;;;23.73;44.31;98623.66;337158;28;17887;-70
2023/10/14 00:32:42;;;;;;;2.95;1.50;;;;;;;23.71;44.09;98621.16;336796;28;12521;-72
2023/10/14 00:32:54;;;;;;;4.00;1.52;;;;;;;23.68;44.75;98620.66;339366;28;4757;-72
2023/10/14 00:33:06;;;;;;;4.93;1.60;;;;;;;23.68;44.30;98620.66;338949;28;4701;-73
2023/10/14 00:33:20;;;;;;;6.35;1.60;;;;;;;23.71;44.26;98620.34;335721;28;18105;-72
2023/10/14 00:33:35;;;;;;;3.22;1.25;;;;;;;23.75;44.04;98619.03;336462;28;17666;-73
2023/10/14 00:33:47;;;;;;;2.25;1.23;;;;;;;23.75;44.28;98621.69;339972;28;5049;-73
2023/10/14 00:34:00;;;;;;;3.80;1.50;;;;;;;23.75;44.08;98621.69;333657;28;17020;-73
2023/10/14 00:34:14;;;;;;;3.58;1.48;;;;;;;23.68;44.23;98623.31;342818;28;4657;-73
2023/10/14 00:34:26;;;;;;;3.67;1.20;;;;;;;23.77;44.07;98617.09;336572;28;17815;-72
2023/10/14 00:34:38;;;;;;;3.58;1.20;;;;;;;23.80;43.76;98622.06;334914;28;18660;-73
2023/10/14 00:34:50;;;;;;;3.08;1.17;;;;;;;23.78;43.84;98621.38;338520;28;6809;-72
2023/10/14 00:35:09;;;;;;;2.97;1.30;;;;;;;23.77;44.13;98619.75;334722;28;12927;-72
2023/10/14 00:35:21;;;;;;;2.28;1.23;;;;;;;23.80;43.94;98619.41;335460;28;17843;-71
2023/10/14 00:35:33;;;;;;;2.45;1.27;;;;;;;23.76;43.96;98620.69;335735;28;12698;-72
2023/10/14 00:35:54;;;;;;;2.72;1.40;;;;;;;23.75;44.19;98615.56;336101;28;17355;-72
2023/10/14 00:36:10;;;;;;;1.98;1.40;;;;;;;23.73;44.11;98624.50;334567;28;17805;-72
2023/10/14 00:36:25;;;;;;;2.15;1.30;;;;;;;23.76;44.49;98626.00;336559;28;18168;-72
2023/10/14 00:36:41;;;;;;;2.70;1.38;;;;;;;23.70;44.15;98623.97;337973;28;17692;-72
2023/10/14 00:36:59;;;;;;;2.08;1.30;;;;;;;23.70;44.31;98621.31;337777;28;13568;-73
2023/10/14 00:37:11;;;;;;;1.58;1.17;;;;;;;23.70;44.03;98616.00;337994;28;17768;-72
2023/10/14 00:37:23;;;;;;;2.30;1.48;;;;;;;23.71;44.19;98617.69;338731;28;16245;-71
2023/10/14 00:37:35;;;;;;;2.60;1.50;;;;;;;23.73;44.15;98623.66;341213;28;4471;-72
2023/10/14 00:37:47;;;;;;;3.90;1.45;;;;;;;23.74;44.07;98620.00;340341;28;5512;-72
2023/10/14 00:38:08;;;;;;;5.75;1.45;;;;;;;23.75;44.03;98627.00;338551;28;17783;-72
2023/10/14 00:38:20;;;;;;;3.45;1.48;;;;;;;23.75;44.16;98616.38;338027;28;17402;-71
2023/10/14 00:38:34;;;;;;;3.25;1.52;;;;;;;23.76;44.40;98619.84;341818;28;4505;-72
2023/10/14 00:38:55;;;;;;;2.70;1.40;;;;;;;23.74;44.29;98627.97;338270;28;18218;-71
2023/10/14 00:39:15;;;;;;;2.15;1.20;;;;;;;23.62;44.68;98618.63;337802;28;17501;-72
2023/10/14 00:39:27;;;;;;;2.60;1.50;;;;;;;23.67;44.04;98624.31;338842;28;17426;-71
2023/10/14 00:39:42;;;;;;;3.97;1.50;;;;;;;23.68;44.29;98620.66;337911;28;19281;-71
2023/10/14 00:40:01;;;;;;;3.47;1.30;;;;;;;23.67;44.14;98611.88;333316;28;5840;-71
2023/10/14 00:40:22;;;;;;;2.45;1.55;;;;;;;23.73;44.10;98618.38;337548;28;18139;-72
2023/10/14 00:40:37;;;;;;;2.40;1.60;;;;;;;23.70;44.32;98613.34;338993;28;17280;-72
2023/10/14 00:40:49;;;;;;;2.45;1.38;;;;;;;23.65;44.41;98610.38;340877;28;17561;-72
2023/10/14 00:41:01;;;;;;;2.42;1.40;;;;;;;23.63;44.31;98615.00;337566;28;17787;-72
2023/10/14 00:41:13;;;;;;;3.88;1.45;;;;;;;23.61;44.56;98611.69;340567;28;4693;-72
2023/10/14 00:41:27;;;;;;;4.70;1.50;;;;;;;23.63;44.39;98613.19;337765;28;16538;-72
2023/10/14 00:41:39;;;;;;;3.03;1.30;;;;;;;23.63;44.55;98617.66;338969;28;12317;-73
2023/10/14 00:41:52;;;;;;;1.60;1.17;;;;;;;23.65;44.42;98611.19;341335;28;5840;-73
2023/10/14 00:42:07;;;;;;;1.58;1.23;;;;;;;23.66;44.32;98609.38;337000;28;18118;-72
2023/10/14 00:42:20;;;;;;;2.10;1.40;;;;;;;23.70;44.47;98616.00;337514;28;12268;-73
2023/10/14 00:42:32;;;;;;;2.20;1.58;;;;;;;23.68;44.25;98615.34;340927;28;4477;-72
2023/10/14 00:42:44;;;;;;;3.30;1.40;;;;;;;23.72;44.38;98624.66;341582;28;5386;-72
2023/10/14 00:42:57;;;;;;;4.10;1.42;;;;;;;23.73;44.45;98621.00;337604;28;17563;-72
2023/10/14 00:43:11;;;;;;;3.85;1.60;;;;;;;23.73;44.31;98618.38;334436;28;5486;-72
2023/10/14 00:43:23;;;;;;;2.43;1.53;;;;;;;23.71;44.27;98612.38;341015;28;5572;-72
2023/10/14 00:43:36;;;;;;;2.05;1.40;;;;;;;23.69;44.53;98617.03;338087;28;13514;-72
2023/10/14 00:43:48;;;;;;;2.90;1.30;;;;;;;23.61;44.69;98614.34;336141;28;5154;-72
2023/10/14 00:44:00;;;;;;;3.88;1.30;;;;;;;23.62;44.67;98616.81;339774;28;7767;-72
2023/10/14 00:44:12;;;;;;;3.92;1.45;;;;;;;23.63;44.89;98622.97;342651;28;5306;-72
2023/10/14 00:44:25;;;;;;;3.33;1.50;;;;;;;23.64;44.50;98608.69;341440;28;4647;-72
2023/10/14 00:44:39;;;;;;;3.63;1.50;;;;;;;23.66;44.68;98617.31;337453;28;18065;-72
2023/10/14 00:44:51;;;;;;;3.13;1.42;;;;;;;23.68;44.69;98615.34;337813;28;17902;-72
2023/10/14 00:45:09;;;;;;;1.88;1.35;;;;;;;23.75;44.36;98604.94;342648;28;4683;-72
2023/10/14 00:45:21;;;;;;;2.17;1.50;;;;;;;23.78;44.21;98610.78;339218;28;17272;-72
2023/10/14 00:45:40;;;;;;;2.10;1.47;;;;;;;23.78;44.28;98605.47;338451;28;17404;-73
2023/10/14 00:45:52;;;;;;;2.60;1.60;;;;;;;23.77;44.39;98610.91;337569;28;17707;-73
2023/10/14 00:46:11;;;;;;;2.78;1.70;;;;;;;23.76;44.38;98610.06;341202;28;4706;-72
2023/10/14 00:46:23;;;;;;;2.15;1.40;;;;;;;23.82;44.25;98616.59;337590;28;18356;-73
2023/10/14 00:46:42;;;;;;;2.28;1.38;;;;;;;23.76;44.51;98601.28;336729;28;13431;-72
2023/10/14 00:46:55;;;;;;;2.88;1.60;;;;;;;23.66;44.66;98612.88;336608;28;19170;-72
2023/10/14 00:47:15;;;;;;;2.90;1.65;;;;;;;23.67;44.73;98613.69;336355;28;18913;-72
2023/10/14 00:47:28;;;;;;;2.22;1.60;;;;;;;23.65;44.68;98599.75;335669;28;18754;-73
2023/10/14 00:47:40;;;;;;;1.92;1.50;;;;;;;23.68;44.52;98604.72;338953;28;5288;-72
2023/10/14 00:47:52;;;;;;;2.72;1.50;;;;;;;23.64;44.61;98608.69;336318;28;18106;-73
2023/10/14 00:48:06;;;;;;;4.15;1.45;;;;;;;23.65;44.53;98605.06;340300;28;4668;-73
2023/10/14 00:48:27;;;;;;;4.57;1.55;;;;;;;23.64;44.64;98609.56;333123;28;18053;-73
2023/10/14 00:48:40;;;;;;;2.95;1.70;;;;;;;23.70;44.51;98602.75;336517;28;17722;-72
2023/10/14 00:48:58;;;;;;;2.28;1.60;;;;;;;23.64;44.93;98595.44;336236;28;18991;-73
2023/10/14 00:49:11;;;;;;;2.38;1.38;;;;;;;23.64;44.67;98603.38;336757;28;17717;-71
2023/10/14 00:49:31;;;;;;;2.70;1.40;;;;;;;23.63;44.75;98612.34;337436;28;18126;-72
2023/10/14 00:49:45;;;;;;;4.80;1.77;;;;;;;23.74;44.44;98601.44;336890;28;17795;-72
2023/10/14 00:49:58;;;;;;;3.60;1.55;;;;;;;23.81;44.32;98597.19;337717;28;17703;-72
2023/10/14 00:50:28;;;;;;;2.38;1.50;;;;;;;23.87;44.15;98609.81;340883;28;5519;-71
2023/10/14 00:50:41;;;;;;;1.65;1.38;;;;;;;23.81;44.42;98597.19;338694;28;17549;-72
2023/10/14 00:50:59;;;;;;;1.52;1.25;;;;;;;23.73;44.39;98613.06;338140;28;18222;-70
2023/10/14 00:51:13;;;;;;;2.50;1.45;;;;;;;23.67;44.60;98595.13;337283;28;16755;-70
2023/10/14 00:51:29;;;;;;;3.83;1.67;;;;;;;23.67;44.48;98605.72;337808;28;18122;-72
2023/10/14 00:51:45;;;;;;;3.33;1.70;;;;;;;23.68;44.55;98594.13;338691;28;17765;-72
2023/10/14 00:52:05;;;;;;;2.45;1.60;;;;;;;23.72;44.55;98600.75;339037;28;18040;-72
2023/10/14 00:52:19;;;;;;;2.38;1.50;;;;;;;23.69;44.47;98603.75;337503;28;16861;-73
2023/10/14 00:52:32;;;;;;;2.67;1.67;;;;;;;23.71;44.62;98604.44;338127;28;5289;-72
2023/10/14 00:52:51;;;;;;;2.53;1.70;;;;;;;23.77;44.41;98606.47;335389;28;17129;-74
2023/10/14 00:53:06;;;;;;;2.17;1.50;;;;;;;23.77;44.34;98603.81;335528;28;16482;-73
2023/10/14 00:53:18;;;;;;;2.30;1.45;;;;;;;23.73;44.64;98602.44;337301;28;17935;-72
2023/10/14 00:53:31;;;;;;;4.97;1.55;;;;;;;23.73;44.67;98607.75;340486;28;4702;-72
2023/10/14 00:53:52;;;;;;;4.63;1.50;;;;;;;23.69;44.46;98604.56;336923;28;18367;-70
2023/10/14 00:54:10;;;;;;;2.20;1.48;;;;;;;23.73;44.52;98603.28;338281;28;16456;-71
2023/10/14 00:54:27;;;;;;;5.82;1.60;;;;;;;23.73;44.45;98597.13;337857;28;17753;-71
2023/10/14 00:55:12;;;;;;;6.90;2.10;;;;;;;23.78;44.49;98601.97;337270;28;17793;-71
2023/10/14 00:55:13;;;;;;;3.30;1.52;;;;;;;23.77;44.42;98600.31;336908;28;18580;-71
2023/10/14 00:55:42;;;;;;;3.40;1.52;;;;;;;23.76;44.61;98602.09;338121;28;18294;-71
2023/10/14 00:55:54;;;;;;;3.13;1.40;;;;;;;23.77;44.52;98587.91;337308;28;17105;-72
2023/10/14 00:56:10;;;;;;;4.25;1.48;;;;;;;23.81;44.25;98599.84;341808;28;5421;-70
2023/10/14 00:56:28;;;;;;;3.90;1.63;;;;;;;23.84;44.12;98601.34;338727;28;17925;-71
2023/10/14 00:56:40;;;;;;;2.22;1.58;;;;;;;23.84;44.31;98594.22;338561;28;18765;-71
2023/10/14 00:57:00;;;;;;;2.08;1.60;;;;;;;23.85;44.20;98595.88;341252;28;4506;-72
2023/10/14 00:57:38;;;;;;;2.15;1.40;;;;;;;23.87;44.14;98606.34;337756;28;19219;-72
2023/10/14 00:57:59;;;;;;;3.05;1.45;;;;;;;23.88;44.32;98595.53;337921;28;17272;-72
2023/10/14 00:58:12;;;;;;;2.28;1.50;;;;;;;23.91;44.26;98597.88;337831;28;17889;-73
2023/10/14 00:58:28;;;;;;;2.00;1.50;;;;;;;23.85;44.18;98595.88;338848;28;4708;-74
2023/10/14 00:58:44;;;;;;;2.05;1.45;;;;;;;23.91;44.11;98597.06;338894;28;17128;-73
2023/10/14 00:58:59;;;;;;;2.72;1.50;;;;;;;23.91;44.30;98595.25;338590;28;17793;-72
2023/10/14 00:59:11;;;;;;;2.80;1.40;;;;;;;23.90;44.28;98598.03;339340;28;17969;-73
2023/10/14 00:59:23;;;;;;;2.22;1.48;;;;;;;23.90;44.13;98593.59;340893;28;4644;-72
2023/10/14 00:59:37;;;;;;;2.17;1.40;;;;;;;23.93;44.31;98593.25;336421;28;18635;-72
2023/10/14 00:59:53;;;;;;;2.03;1.30;;;;;;;23.97;44.02;98599.06;333700;28;5686;-72
2023/10/14 01:00:10;;;;;;;1.92;1.50;;;;;;;23.93;44.40;98603.88;338087;28;17039;-72
2023/10/14 01:00:38;;;;;;;2.55;1.75;;;;;;;23.92;44.16;98590.75;337260;28;17867;-72
2023/10/14 01:00:56;;;;;;;2.78;1.67;;;;;;;23.88;44.70;98592.88;336050;28;16881;-72
2023/10/14 01:01:09;;;;;;;3.20;1.60;;;;;;;23.92;44.32;98594.25;336094;28;17607;-71
2023/10/14 01:01:22;;;;;;;3.70;1.70;;;;;;;23.91;44.28;98592.59;336787;28;17927;-73
2023/10/14 01:02:09;;;;;;;2.35;1.40;;;;;;;23.89;44.42;98602.53;337669;28;18206;-72
2023/10/14 01:02:31;;;;;;;3.25;1.60;;;;;;;23.89;44.52;98597.22;337395;28;19166;-71
2023/10/14 01:02:45;;;;;;;4.10;2.00;;;;;;;23.92;44.21;98596.91;334274;28;17394;-72
2023/10/14 01:03:00;;;;;;;4.20;1.75;;;;;;;23.93;44.12;98593.25;339151;28;18189;-72
2023/10/14 01:03:15;;;;;;;3.47;1.48;;;;;;;23.93;44.33;98597.75;335897;28;16485;-71
2023/10/14 01:03:31;;;;;;;2.80;1.50;;;;;;;23.87;44.59;98604.50;336500;28;18022;-71
2023/10/14 01:03:48;;;;;;;2.83;1.50;;;;;;;23.93;44.32;98606.53;336089;28;18057;-72
2023/10/14 01:04:48;;;;;;;3.53;2.10;;;;;;;24.00;44.24;98597.91;333352;28;18962;-72
2023/10/14 01:05:14;;;;;;;4.03;2.10;;;;;;;24.03;44.09;98597.59;334012;28;17726;-73
2023/10/14 01:05:29;;;;;;;3.15;1.70;;;;;;;24.04;44.12;98599.25;338287;28;18370;-72
2023/10/14 01:05:41;;;;;;;2.97;1.70;;;;;;;24.00;44.23;98600.56;332917;28;5416;-72
2023/10/14 01:06:04;;;;;;;3.15;1.77;;;;;;;23.96;44.27;98596.56;338908;28;4685;-72
2023/10/14 01:06:34;;;;;;;2.57;1.70;;;;;;;23.95;44.39;98594.94;335752;28;17669;-72
2023/10/14 01:06:56;;;;;;;5.32;2.10;;;;;;;23.83;44.75;98603.19;337176;28;17416;-73
2023/10/14 01:07:14;;;;;;;3.38;1.83;;;;;;;23.92;44.44;98586.31;336329;28;17770;-72
2023/10/14 01:07:26;;;;;;;4.05;1.63;;;;;;;23.84;44.68;98598.69;336599;28;17526;-73
2023/10/14 01:07:39;;;;;;;5.15;1.55;;;;;;;23.81;44.33;98626.38;331874;28;17176;-71
2023/10/14 01:07:51;;;;;;;5.55;1.50;;;;;;;23.84;44.58;98602.16;340164;28;4703;-72
2023/10/14 01:08:11;;;;;;;6.22;1.60;;;;;;;23.92;44.43;98612.84;337446;28;17896;-71
2023/10/14 01:08:25;;;;;;;5.63;1.80;;;;;;;23.87;44.68;98609.81;338692;28;17858;-71
2023/10/14 01:08:42;;;;;;;3.90;1.67;;;;;;;23.93;44.44;98622.44;336031;28;4537;-72
2023/10/14 01:08:55;;;;;;;4.60;1.63;;;;;;;23.93;44.57;98614.47;337246;28;17810;-71
2023/10/14 01:09:16;;;;;;;4.97;1.60;;;;;;;23.88;44.82;98606.16;341044;28;4642;-72
2023/10/14 01:10:00;;;;;;;5.28;1.67;;;;;;;23.97;44.41;98599.06;334640;28;17577;-72
2023/10/14 01:10:23;;;;;;;3.20;1.40;;;;;;;24.08;44.21;98584.66;340424;28;4562;-71
2023/10/14 01:10:35;;;;;;;3.65;1.58;;;;;;;24.08;44.13;98612.03;337397;28;18394;-71
2023/10/14 01:10:49;;;;;;;2.72;1.80;;;;;;;24.07;44.18;98598.94;338215;28;18222;-71
2023/10/14 01:11:04;;;;;;;3.50;1.83;;;;;;;24.06;44.32;98599.91;338454;28;15497;-71
2023/10/14 01:11:18;;;;;;;3.50;1.98;;;;;;;24.02;44.43;98603.91;340340;28;4520;-70
2023/10/14 01:11:35;;;;;;;3.65;1.90;;;;;;;23.99;44.63;98602.41;337949;28;18039;-71
2023/10/14 01:11:47;;;;;;;2.85;1.40;;;;;;;23.98;44.51;98594.59;337467;28;17719;-71
2023/10/14 01:12:39;;;;;;;2.92;1.80;;;;;;;24.02;44.41;98606.53;337707;28;17216;-72
2023/10/14 01:12:55;;;;;;;2.65;1.83;;;;;;;24.00;44.31;98592.59;332829;28;17417;-73
2023/10/14 01:13:13;;;;;;;2.33;1.60;;;;;;;24.06;44.26;98613.19;337919;28;17684;-72
2023/10/14 01:13:27;;;;;;;2.13;1.50;;;;;;;23.98;44.43;98605.22;338958;28;17478;-71
2023/10/14 01:13:39;;;;;;;2.08;1.58;;;;;;;23.96;44.58;98602.72;337071;28;16512;-72
2023/10/14 01:13:57;;;;;;;2.28;1.67;;;;;;;23.96;44.48;98596.56;340593;28;5157;-72
2023/10/14 01:14:14;;;;;;;2.60;1.80;;;;;;;23.93;44.72;98601.22;340704;28;17729;-72
2023/10/14 01:14:27;;;;;;;6.80;2.10;;;;;;;23.95;44.58;98594.94;334943;28;17988;-72
2023/10/14 01:14:41;;;;;;;6.70;2.03;;;;;;;23.91;44.78;98603.19;341865;28;5038;-72
2023/10/14 01:14:59;;;;;;;3.13;1.80;;;;;;;23.95;44.56;98603.72;338804;28;17832;-73
2023/10/14 01:15:20;;;;;;;2.40;1.70;;;;;;;24.01;44.48;98603.06;337104;28;18779;-72
2023/10/14 01:15:41;;;;;;;2.83;1.80;;;;;;;23.96;44.58;98597.41;337709;28;17154;-71
2023/10/14 01:16:08;;;;;;;3.95;1.75;;;;;;;23.97;44.50;98593.78;333533;28;17562;-72
2023/10/14 01:16:24;;;;;;;4.38;1.60;;;;;;;24.02;44.49;98602.06;338586;28;17302;-71
2023/10/14 01:16:37;;;;;;;5.05;1.77;;;;;;;24.06;44.24;98590.13;337017;28;17475;-72